sensor_id;sensor_type;location;lat;lon;timestamp;pressure;altitude;pressure_sealevel;temperature;humidity
47430;BME280;33181;49.246;7.372;2022-08-19T00:00:13;98486.63;;;21.33;78.78
47430;BME280;33181;49.246;7.372;2022-08-19T00:02:41;98489.28;;;21.33;78.88
47430;BME280;33181;49.246;7.372;2022-08-19T00:05:08;98493.59;;;21.34;78.64
47430;BME280;33181;49.246;7.372;2022-08-19T00:07:34;98497.94;;;21.35;78.64
47430;BME280;33181;49.246;7.372;2022-08-19T00:10:00;98491.97;;;21.33;78.47
47430;BME280;33181;49.246;7.372;2022-08-19T00:12:26;98487.66;;;21.32;78.76
47430;BME280;33181;49.246;7.372;2022-08-19T00:14:52;98487.25;;;21.35;78.62
47430;BME280;33181;49.246;7.372;2022-08-19T00:17:20;98478.38;;;21.34;78.88
47430;BME280;33181;49.246;7.372;2022-08-19T00:19:46;98476.56;;;21.35;79.09
47430;BME280;33181;49.246;7.372;2022-08-19T00:22:12;98470.38;;;21.34;79.18
47430;BME280;33181;49.246;7.372;2022-08-19T00:24:38;98473.03;;;21.34;79.17
47430;BME280;33181;49.246;7.372;2022-08-19T00:27:06;98479.00;;;21.29;79.09
47430;BME280;33181;49.246;7.372;2022-08-19T00:29:32;98486.56;;;21.19;79.43
47430;BME280;33181;49.246;7.372;2022-08-19T00:31:58;98492.91;;;21.18;79.58
47430;BME280;33181;49.246;7.372;2022-08-19T00:34:26;98488.19;;;21.20;79.42
47430;BME280;33181;49.246;7.372;2022-08-19T00:36:55;98490.28;;;21.25;79.73
47430;BME280;33181;49.246;7.372;2022-08-19T00:39:21;98485.53;;;21.20;80.56
47430;BME280;33181;49.246;7.372;2022-08-19T00:41:50;98484.91;;;21.18;80.87
47430;BME280;33181;49.246;7.372;2022-08-19T00:44:23;98477.91;;;21.17;80.73
47430;BME280;33181;49.246;7.372;2022-08-19T00:46:51;98476.69;;;21.20;80.83
47430;BME280;33181;49.246;7.372;2022-08-19T00:49:34;98468.03;;;21.11;81.25
47430;BME280;33181;49.246;7.372;2022-08-19T00:52:12;98464.75;;;21.09;81.94
47430;BME280;33181;49.246;7.372;2022-08-19T00:54:40;98467.00;;;21.12;82.20
47430;BME280;33181;49.246;7.372;2022-08-19T00:57:12;98470.69;;;21.11;82.26
47430;BME280;33181;49.246;7.372;2022-08-19T00:59:41;98465.16;;;21.13;81.92
47430;BME280;33181;49.246;7.372;2022-08-19T01:02:08;98467.00;;;21.12;81.97
47430;BME280;33181;49.246;7.372;2022-08-19T01:04:34;98469.25;;;21.15;81.93
47430;BME280;33181;49.246;7.372;2022-08-19T01:07:00;98469.06;;;21.10;82.24
47430;BME280;33181;49.246;7.372;2022-08-19T01:09:26;98472.31;;;21.12;82.22
47430;BME280;33181;49.246;7.372;2022-08-19T01:11:52;98471.31;;;21.13;82.09
47430;BME280;33181;49.246;7.372;2022-08-19T01:14:18;98470.28;;;21.14;81.94
47430;BME280;33181;49.246;7.372;2022-08-19T01:16:45;98464.78;;;21.16;81.75
47430;BME280;33181;49.246;7.372;2022-08-19T01:19:31;98469.06;;;21.10;81.31
47430;BME280;33181;49.246;7.372;2022-08-19T01:22:18;98460.41;;;21.08;81.04
47430;BME280;33181;49.246;7.372;2022-08-19T01:24:47;98461.03;;;21.10;80.67
47430;BME280;33181;49.246;7.372;2022-08-19T01:27:13;98474.41;;;21.10;80.20
47430;BME280;33181;49.246;7.372;2022-08-19T01:29:41;98470.66;;;21.04;79.76
47430;BME280;33181;49.246;7.372;2022-08-19T01:32:10;98480.06;;;20.94;79.87
47430;BME280;33181;49.246;7.372;2022-08-19T01:34:37;98473.03;;;20.86;80.14
47430;BME280;33181;49.246;7.372;2022-08-19T01:37:11;98484.72;;;20.85;80.42
47430;BME280;33181;49.246;7.372;2022-08-19T01:39:39;98477.97;;;20.89;80.56
47430;BME280;33181;49.246;7.372;2022-08-19T01:42:07;98485.38;;;20.87;80.34
47430;BME280;33181;49.246;7.372;2022-08-19T01:44:34;98483.09;;;20.84;80.67
47430;BME280;33181;49.246;7.372;2022-08-19T01:47:02;98487.19;;;20.87;80.49
47430;BME280;33181;49.246;7.372;2022-08-19T01:49:30;98491.91;;;20.85;80.90
47430;BME280;33181;49.246;7.372;2022-08-19T01:51:56;98486.75;;;20.83;81.12
47430;BME280;33181;49.246;7.372;2022-08-19T01:54:24;98486.59;;;20.85;81.23
47430;BME280;33181;49.246;7.372;2022-08-19T01:56:52;98488.88;;;20.88;81.26
47430;BME280;33181;49.246;7.372;2022-08-19T01:59:21;98495.41;;;20.85;81.14
47430;BME280;33181;49.246;7.372;2022-08-19T02:01:48;98495.97;;;20.80;81.30
47430;BME280;33181;49.246;7.372;2022-08-19T02:04:14;98497.78;;;20.73;81.44
47430;BME280;33181;49.246;7.372;2022-08-19T02:06:40;98494.94;;;20.75;81.59
47430;BME280;33181;49.246;7.372;2022-08-19T02:09:08;98496.53;;;20.69;81.24
47430;BME280;33181;49.246;7.372;2022-08-19T02:11:36;98494.06;;;20.68;81.27
47430;BME280;33181;49.246;7.372;2022-08-19T02:14:06;98495.69;;;20.62;80.08
47430;BME280;33181;49.246;7.372;2022-08-19T02:16:33;98488.91;;;20.66;80.14
47430;BME280;33181;49.246;7.372;2022-08-19T02:18:59;98494.66;;;20.63;80.12
47430;BME280;33181;49.246;7.372;2022-08-19T02:21:27;98494.66;;;20.63;80.26
47430;BME280;33181;49.246;7.372;2022-08-19T02:23:53;98488.72;;;20.68;80.24
47430;BME280;33181;49.246;7.372;2022-08-19T02:26:19;98495.91;;;20.67;80.00
47430;BME280;33181;49.246;7.372;2022-08-19T02:28:45;98490.16;;;20.70;79.54
47430;BME280;33181;49.246;7.372;2022-08-19T02:31:18;98500.03;;;20.70;79.61
47430;BME280;33181;49.246;7.372;2022-08-19T02:33:45;98500.28;;;20.75;79.33
47430;BME280;33181;49.246;7.372;2022-08-19T02:36:13;98505.81;;;20.73;79.29
47430;BME280;33181;49.246;7.372;2022-08-19T02:38:39;98511.13;;;20.73;79.46
47430;BME280;33181;49.246;7.372;2022-08-19T02:41:12;98504.16;;;20.72;79.70
47430;BME280;33181;49.246;7.372;2022-08-19T02:43:39;98507.66;;;20.73;79.62
47430;BME280;33181;49.246;7.372;2022-08-19T02:46:19;98501.66;;;20.71;79.84
47430;BME280;33181;49.246;7.372;2022-08-19T02:48:51;98495.34;;;20.72;80.04
47430;BME280;33181;49.246;7.372;2022-08-19T02:51:23;98494.50;;;20.71;79.82
47430;BME280;33181;49.246;7.372;2022-08-19T02:53:49;98503.94;;;20.74;79.84
47430;BME280;33181;49.246;7.372;2022-08-19T02:56:15;98502.13;;;20.74;79.93
47430;BME280;33181;49.246;7.372;2022-08-19T02:58:41;98495.50;;;20.70;80.24
47430;BME280;33181;49.246;7.372;2022-08-19T03:01:09;98502.91;;;20.68;80.43
47430;BME280;33181;49.246;7.372;2022-08-19T03:03:37;98504.25;;;20.57;81.19
47430;BME280;33181;49.246;7.372;2022-08-19T03:06:14;98506.19;;;20.49;81.78
47430;BME280;33181;49.246;7.372;2022-08-19T03:08:44;98507.44;;;20.46;81.91
47430;BME280;33181;49.246;7.372;2022-08-19T03:11:19;98504.69;;;20.40;82.14
47430;BME280;33181;49.246;7.372;2022-08-19T03:13:46;98505.31;;;20.42;82.30
47430;BME280;33181;49.246;7.372;2022-08-19T03:16:12;98503.31;;;20.44;82.31
47430;BME280;33181;49.246;7.372;2022-08-19T03:18:38;98493.41;;;20.37;82.45
47430;BME280;33181;49.246;7.372;2022-08-19T03:21:05;98498.47;;;20.32;82.76
47430;BME280;33181;49.246;7.372;2022-08-19T03:23:31;98502.81;;;20.33;82.79
47430;BME280;33181;49.246;7.372;2022-08-19T03:25:57;98505.09;;;20.36;82.65
47430;BME280;33181;49.246;7.372;2022-08-19T03:28:23;98502.22;;;20.38;82.64
47430;BME280;33181;49.246;7.372;2022-08-19T03:31:02;98507.31;;;20.33;82.79
47430;BME280;33181;49.246;7.372;2022-08-19T03:33:30;98503.81;;;20.32;82.95
47430;BME280;33181;49.246;7.372;2022-08-19T03:36:24;98510.34;;;20.30;83.13
47430;BME280;33181;49.246;7.372;2022-08-19T03:38:55;98519.81;;;20.32;82.93
47430;BME280;33181;49.246;7.372;2022-08-19T03:41:28;98510.19;;;20.31;82.85
47430;BME280;33181;49.246;7.372;2022-08-19T03:43:54;98514.47;;;20.32;82.65
47430;BME280;33181;49.246;7.372;2022-08-19T03:46:29;98515.25;;;20.26;82.32
47430;BME280;33181;49.246;7.372;2022-08-19T03:48:58;98511.06;;;20.17;83.04
47430;BME280;33181;49.246;7.372;2022-08-19T03:51:32;98516.41;;;20.17;82.79
47430;BME280;33181;49.246;7.372;2022-08-19T03:54:02;98526.25;;;20.17;82.63
47430;BME280;33181;49.246;7.372;2022-08-19T03:56:29;98527.81;;;20.11;82.66
47430;BME280;33181;49.246;7.372;2022-08-19T03:58:56;98537.22;;;20.07;82.69
47430;BME280;33181;49.246;7.372;2022-08-19T04:01:26;98536.69;;;20.11;82.50
47430;BME280;33181;49.246;7.372;2022-08-19T04:03:52;98536.03;;;20.09;82.49
47430;BME280;33181;49.246;7.372;2022-08-19T04:06:26;98533.75;;;20.06;82.30
47430;BME280;33181;49.246;7.372;2022-08-19T04:08:54;98522.88;;;20.08;82.48
47430;BME280;33181;49.246;7.372;2022-08-19T04:11:25;98522.63;;;20.03;82.33
47430;BME280;33181;49.246;7.372;2022-08-19T04:13:53;98518.06;;;19.97;82.43
47430;BME280;33181;49.246;7.372;2022-08-19T04:16:25;98527.84;;;19.89;82.57
47430;BME280;33181;49.246;7.372;2022-08-19T04:18:59;98528.84;;;19.88;82.93
47430;BME280;33181;49.246;7.372;2022-08-19T04:21:27;98519.19;;;19.87;82.82
47430;BME280;33181;49.246;7.372;2022-08-19T04:23:55;98516.69;;;19.86;82.62
47430;BME280;33181;49.246;7.372;2022-08-19T04:26:31;98523.44;;;19.82;82.63
47430;BME280;33181;49.246;7.372;2022-08-19T04:29:04;98529.19;;;19.85;82.71
47430;BME280;33181;49.246;7.372;2022-08-19T04:31:31;98522.69;;;19.88;82.58
47430;BME280;33181;49.246;7.372;2022-08-19T04:34:05;98511.38;;;19.86;82.60
47430;BME280;33181;49.246;7.372;2022-08-19T04:36:34;98517.28;;;19.81;82.70
47430;BME280;33181;49.246;7.372;2022-08-19T04:39:05;98522.34;;;19.76;83.00
47430;BME280;33181;49.246;7.372;2022-08-19T04:41:32;98532.56;;;19.73;83.44
47430;BME280;33181;49.246;7.372;2022-08-19T04:44:17;98527.34;;;19.64;83.74
47430;BME280;33181;49.246;7.372;2022-08-19T04:46:44;98529.91;;;19.58;84.19
47430;BME280;33181;49.246;7.372;2022-08-19T04:49:10;98529.25;;;19.56;84.35
47430;BME280;33181;49.246;7.372;2022-08-19T04:51:39;98528.16;;;19.50;84.43
47430;BME280;33181;49.246;7.372;2022-08-19T04:54:05;98526.31;;;19.51;84.41
47430;BME280;33181;49.246;7.372;2022-08-19T04:56:31;98527.13;;;19.51;84.25
47430;BME280;33181;49.246;7.372;2022-08-19T04:58:57;98525.41;;;19.58;84.23
47430;BME280;33181;49.246;7.372;2022-08-19T05:01:27;98522.16;;;19.63;83.78
47430;BME280;33181;49.246;7.372;2022-08-19T05:03:54;98525.31;;;19.52;84.04
47430;BME280;33181;49.246;7.372;2022-08-19T05:06:23;98532.22;;;19.46;84.31
47430;BME280;33181;49.246;7.372;2022-08-19T05:08:49;98538.09;;;19.41;84.75
47430;BME280;33181;49.246;7.372;2022-08-19T05:11:26;98536.66;;;19.39;84.51
47430;BME280;33181;49.246;7.372;2022-08-19T05:13:53;98544.81;;;19.37;84.66
47430;BME280;33181;49.246;7.372;2022-08-19T05:16:21;98544.34;;;19.34;84.58
47430;BME280;33181;49.246;7.372;2022-08-19T05:18:48;98549.03;;;19.32;84.47
47430;BME280;33181;49.246;7.372;2022-08-19T05:21:33;98541.69;;;19.19;84.89
47430;BME280;33181;49.246;7.372;2022-08-19T05:24:20;98557.88;;;19.17;85.07
47430;BME280;33181;49.246;7.372;2022-08-19T05:26:49;98556.69;;;19.20;84.91
47430;BME280;33181;49.246;7.372;2022-08-19T05:29:19;98553.91;;;19.28;84.22
47430;BME280;33181;49.246;7.372;2022-08-19T05:31:47;98548.22;;;19.31;84.24
47430;BME280;33181;49.246;7.372;2022-08-19T05:34:15;98546.81;;;19.35;84.27
47430;BME280;33181;49.246;7.372;2022-08-19T05:36:44;98548.75;;;19.41;83.92
47430;BME280;33181;49.246;7.372;2022-08-19T05:39:16;98550.75;;;19.54;83.70
47430;BME280;33181;49.246;7.372;2022-08-19T05:41:47;98548.28;;;19.67;82.64
47430;BME280;33181;49.246;7.372;2022-08-19T05:44:15;98545.34;;;19.77;82.50
47430;BME280;33181;49.246;7.372;2022-08-19T05:46:44;98552.56;;;19.83;80.63
47430;BME280;33181;49.246;7.372;2022-08-19T05:49:13;98560.38;;;19.85;80.59
47430;BME280;33181;49.246;7.372;2022-08-19T05:51:41;98572.69;;;19.86;80.70
47430;BME280;33181;49.246;7.372;2022-08-19T05:54:08;98570.72;;;19.95;80.43
47430;BME280;33181;49.246;7.372;2022-08-19T05:56:34;98586.44;;;20.04;79.31
47430;BME280;33181;49.246;7.372;2022-08-19T05:59:08;98587.53;;;20.10;79.26
47430;BME280;33181;49.246;7.372;2022-08-19T06:01:36;98592.53;;;20.20;78.14
47430;BME280;33181;49.246;7.372;2022-08-19T06:04:03;98597.50;;;20.23;77.76
47430;BME280;33181;49.246;7.372;2022-08-19T06:06:29;98604.19;;;20.33;77.31
47430;BME280;33181;49.246;7.372;2022-08-19T06:08:55;98601.34;;;20.56;76.70
47430;BME280;33181;49.246;7.372;2022-08-19T06:14:10;98611.41;;;21.04;74.84
47430;BME280;33181;49.246;7.372;2022-08-19T06:16:38;98613.19;;;21.25;74.35
47430;BME280;33181;49.246;7.372;2022-08-19T06:19:13;98614.63;;;21.56;73.76
47430;BME280;33181;49.246;7.372;2022-08-19T06:21:44;98613.28;;;21.73;73.18
47430;BME280;33181;49.246;7.372;2022-08-19T06:24:13;98611.28;;;21.88;71.91
47430;BME280;33181;49.246;7.372;2022-08-19T06:26:47;98616.69;;;22.08;71.30
47430;BME280;33181;49.246;7.372;2022-08-19T06:29:16;98614.09;;;22.21;69.89
47430;BME280;33181;49.246;7.372;2022-08-19T06:31:47;98615.56;;;22.37;69.06
47430;BME280;33181;49.246;7.372;2022-08-19T06:34:15;98624.25;;;22.53;68.86
47430;BME280;33181;49.246;7.372;2022-08-19T06:36:46;98620.34;;;22.62;68.26
47430;BME280;33181;49.246;7.372;2022-08-19T06:39:24;98627.97;;;22.65;67.75
47430;BME280;33181;49.246;7.372;2022-08-19T06:41:53;98632.28;;;22.73;68.00
47430;BME280;33181;49.246;7.372;2022-08-19T06:44:22;98630.88;;;22.77;67.34
47430;BME280;33181;49.246;7.372;2022-08-19T06:46:47;98632.72;;;22.83;67.61
47430;BME280;33181;49.246;7.372;2022-08-19T06:49:15;98624.94;;;23.08;67.05
47430;BME280;33181;49.246;7.372;2022-08-19T06:51:46;98627.53;;;23.41;65.72
47430;BME280;33181;49.246;7.372;2022-08-19T06:54:17;98623.78;;;23.62;64.47
47430;BME280;33181;49.246;7.372;2022-08-19T06:56:43;98626.00;;;23.85;64.19
47430;BME280;33181;49.246;7.372;2022-08-19T06:59:14;98621.63;;;23.97;63.35
47430;BME280;33181;49.246;7.372;2022-08-19T07:01:45;98625.16;;;23.91;63.66
47430;BME280;33181;49.246;7.372;2022-08-19T07:04:15;98627.06;;;23.84;63.88
47430;BME280;33181;49.246;7.372;2022-08-19T07:06:41;98628.66;;;23.92;63.99
47430;BME280;33181;49.246;7.372;2022-08-19T07:09:15;98619.06;;;24.16;62.65
47430;BME280;33181;49.246;7.372;2022-08-19T07:11:47;98625.34;;;24.35;61.96
47430;BME280;33181;49.246;7.372;2022-08-19T07:14:14;98626.88;;;24.56;61.04
47430;BME280;33181;49.246;7.372;2022-08-19T07:16:40;98634.56;;;24.52;61.03
47430;BME280;33181;49.246;7.372;2022-08-19T07:19:05;98631.25;;;24.57;61.30
47430;BME280;33181;49.246;7.372;2022-08-19T07:21:32;98637.78;;;24.92;60.45
47430;BME280;33181;49.246;7.372;2022-08-19T07:23:59;98634.47;;;25.22;59.31
47430;BME280;33181;49.246;7.372;2022-08-19T07:26:32;98643.44;;;25.34;58.98
47430;BME280;33181;49.246;7.372;2022-08-19T07:28:59;98649.78;;;25.40;58.37
47430;BME280;33181;49.246;7.372;2022-08-19T07:31:27;98641.34;;;25.36;59.02
47430;BME280;33181;49.246;7.372;2022-08-19T07:33:55;98642.69;;;25.27;59.22
47430;BME280;33181;49.246;7.372;2022-08-19T07:36:26;98639.41;;;25.43;59.15
47430;BME280;33181;49.246;7.372;2022-08-19T07:38:57;98637.09;;;25.65;57.74
47430;BME280;33181;49.246;7.372;2022-08-19T07:41:25;98633.31;;;25.73;57.52
47430;BME280;33181;49.246;7.372;2022-08-19T07:43:52;98630.31;;;25.63;57.20
47430;BME280;33181;49.246;7.372;2022-08-19T07:46:19;98632.78;;;25.64;57.26
47430;BME280;33181;49.246;7.372;2022-08-19T07:48:50;98631.72;;;25.65;58.17
47430;BME280;33181;49.246;7.372;2022-08-19T07:51:20;98626.38;;;25.84;57.53
47430;BME280;33181;49.246;7.372;2022-08-19T07:53:47;98633.91;;;25.94;57.82
47430;BME280;33181;49.246;7.372;2022-08-19T07:56:18;98634.53;;;25.96;57.61
47430;BME280;33181;49.246;7.372;2022-08-19T07:58:47;98639.38;;;25.87;57.75
47430;BME280;33181;49.246;7.372;2022-08-19T08:01:21;98636.25;;;25.90;57.87
47430;BME280;33181;49.246;7.372;2022-08-19T08:03:49;98633.56;;;25.90;57.40
47430;BME280;33181;49.246;7.372;2022-08-19T08:06:33;98631.34;;;25.80;57.82
47430;BME280;33181;49.246;7.372;2022-08-19T08:09:23;98634.34;;;25.72;57.95
47430;BME280;33181;49.246;7.372;2022-08-19T08:12:02;98622.75;;;25.72;58.06
47430;BME280;33181;49.246;7.372;2022-08-19T08:14:51;98632.88;;;25.95;57.52
47430;BME280;33181;49.246;7.372;2022-08-19T08:17:24;98629.38;;;26.24;57.44
47430;BME280;33181;49.246;7.372;2022-08-19T08:19:50;98636.91;;;26.52;57.23
47430;BME280;33181;49.246;7.372;2022-08-19T08:22:19;98634.69;;;26.61;55.41
47430;BME280;33181;49.246;7.372;2022-08-19T08:25:16;98641.31;;;26.77;54.68
47430;BME280;33181;49.246;7.372;2022-08-19T08:27:44;98641.44;;;26.94;53.80
47430;BME280;33181;49.246;7.372;2022-08-19T08:30:17;98637.56;;;27.13;53.64
47430;BME280;33181;49.246;7.372;2022-08-19T08:32:44;98632.41;;;27.00;53.41
47430;BME280;33181;49.246;7.372;2022-08-19T08:35:13;98636.81;;;27.24;53.38
47430;BME280;33181;49.246;7.372;2022-08-19T08:37:39;98645.56;;;27.67;53.26
47430;BME280;33181;49.246;7.372;2022-08-19T08:40:19;98643.97;;;28.06;51.98
47430;BME280;33181;49.246;7.372;2022-08-19T08:52:18;98643.09;;;28.17;50.73
47430;BME280;33181;49.246;7.372;2022-08-19T08:54:50;98652.66;;;28.08;50.34
47430;BME280;33181;49.246;7.372;2022-08-19T08:57:44;98649.00;;;28.43;50.72
47430;BME280;33181;49.246;7.372;2022-08-19T09:00:37;98651.63;;;28.67;50.22
47430;BME280;33181;49.246;7.372;2022-08-19T09:03:09;98637.16;;;28.44;50.64
47430;BME280;33181;49.246;7.372;2022-08-19T09:09:14;98624.00;;;28.07;50.74
47430;BME280;33181;49.246;7.372;2022-08-19T09:11:57;98630.59;;;28.40;49.56
47430;BME280;33181;49.246;7.372;2022-08-19T09:15:09;98624.09;;;28.70;48.99
47430;BME280;33181;49.246;7.372;2022-08-19T09:17:30;98640.66;;;28.73;49.23
47430;BME280;33181;49.246;7.372;2022-08-19T09:22:35;98636.31;;;28.72;47.25
47430;BME280;33181;49.246;7.372;2022-08-19T09:25:02;98640.31;;;28.86;47.48
47430;BME280;33181;49.246;7.372;2022-08-19T09:27:28;98633.63;;;29.06;46.66
47430;BME280;33181;49.246;7.372;2022-08-19T09:29:55;98634.38;;;29.01;46.27
47430;BME280;33181;49.246;7.372;2022-08-19T09:32:21;98637.78;;;28.80;46.93
47430;BME280;33181;49.246;7.372;2022-08-19T09:34:48;98634.78;;;28.48;47.41
47430;BME280;33181;49.246;7.372;2022-08-19T09:37:14;98639.28;;;28.02;48.46
47430;BME280;33181;49.246;7.372;2022-08-19T09:39:40;98635.09;;;27.70;48.40
47430;BME280;33181;49.246;7.372;2022-08-19T09:42:07;98631.16;;;27.49;49.23
47430;BME280;33181;49.246;7.372;2022-08-19T09:44:39;98624.56;;;27.69;48.22
47430;BME280;33181;49.246;7.372;2022-08-19T09:47:05;98637.59;;;27.84;46.73
47430;BME280;33181;49.246;7.372;2022-08-19T09:49:31;98623.72;;;28.21;45.92
47430;BME280;33181;49.246;7.372;2022-08-19T09:51:57;98620.97;;;28.78;45.90
47430;BME280;33181;49.246;7.372;2022-08-19T09:54:23;98627.38;;;29.22;43.93
47430;BME280;33181;49.246;7.372;2022-08-19T09:56:50;98623.50;;;29.35;43.36
47430;BME280;33181;49.246;7.372;2022-08-19T09:59:16;98612.28;;;29.26;42.76
47430;BME280;33181;49.246;7.372;2022-08-19T10:01:42;98625.81;;;29.26;42.94
47430;BME280;33181;49.246;7.372;2022-08-19T10:04:08;98615.28;;;29.47;42.58
47430;BME280;33181;49.246;7.372;2022-08-19T10:06:36;98612.00;;;29.62;42.11
47430;BME280;33181;49.246;7.372;2022-08-19T10:09:04;98606.69;;;29.94;42.02
47430;BME280;33181;49.246;7.372;2022-08-19T10:11:32;98607.38;;;30.55;40.79
47430;BME280;33181;49.246;7.372;2022-08-19T10:13:58;98614.44;;;30.88;40.63
47430;BME280;33181;49.246;7.372;2022-08-19T10:16:25;98606.72;;;30.75;40.69
47430;BME280;33181;49.246;7.372;2022-08-19T10:18:52;98615.59;;;30.98;40.84
47430;BME280;33181;49.246;7.372;2022-08-19T10:21:26;98606.41;;;31.41;39.37
47430;BME280;33181;49.246;7.372;2022-08-19T10:23:55;98598.00;;;31.43;39.28
47430;BME280;33181;49.246;7.372;2022-08-19T10:26:29;98609.94;;;31.42;39.84
47430;BME280;33181;49.246;7.372;2022-08-19T10:28:56;98607.91;;;31.22;39.79
47430;BME280;33181;49.246;7.372;2022-08-19T10:31:31;98606.59;;;30.92;40.00
47430;BME280;33181;49.246;7.372;2022-08-19T10:33:57;98603.44;;;30.41;41.47
47430;BME280;33181;49.246;7.372;2022-08-19T10:36:33;98612.41;;;29.97;40.74
47430;BME280;33181;49.246;7.372;2022-08-19T10:39:05;98605.25;;;29.64;41.43
47430;BME280;33181;49.246;7.372;2022-08-19T10:41:36;98605.34;;;29.52;41.74
47430;BME280;33181;49.246;7.372;2022-08-19T10:44:09;98606.66;;;29.50;41.21
47430;BME280;33181;49.246;7.372;2022-08-19T10:46:40;98602.56;;;29.47;40.83
47430;BME280;33181;49.246;7.372;2022-08-19T10:49:09;98597.06;;;29.20;41.05
47430;BME280;33181;49.246;7.372;2022-08-19T10:51:35;98601.31;;;28.99;40.60
47430;BME280;33181;49.246;7.372;2022-08-19T10:54:19;98595.75;;;28.89;41.38
47430;BME280;33181;49.246;7.372;2022-08-19T10:56:46;98594.91;;;29.22;41.09
47430;BME280;33181;49.246;7.372;2022-08-19T10:59:25;98584.41;;;29.65;39.74
47430;BME280;33181;49.246;7.372;2022-08-19T11:01:54;98580.09;;;29.91;39.03
47430;BME280;33181;49.246;7.372;2022-08-19T11:04:24;98576.09;;;30.47;38.57
47430;BME280;33181;49.246;7.372;2022-08-19T11:06:49;98577.63;;;30.98;38.45
47430;BME280;33181;49.246;7.372;2022-08-19T11:09:23;98577.94;;;31.49;37.32
47430;BME280;33181;49.246;7.372;2022-08-19T11:11:50;98562.56;;;31.80;35.75
47430;BME280;33181;49.246;7.372;2022-08-19T11:14:20;98562.41;;;32.07;36.20
47430;BME280;33181;49.246;7.372;2022-08-19T11:16:50;98569.50;;;32.34;35.50
47430;BME280;33181;49.246;7.372;2022-08-19T11:19:17;98566.25;;;32.37;35.37
47430;BME280;33181;49.246;7.372;2022-08-19T11:21:47;98568.00;;;31.80;35.48
47430;BME280;33181;49.246;7.372;2022-08-19T11:24:18;98572.75;;;31.42;35.52
47430;BME280;33181;49.246;7.372;2022-08-19T11:26:45;98576.53;;;30.99;36.80
47430;BME280;33181;49.246;7.372;2022-08-19T11:29:13;98568.59;;;30.87;37.10
47430;BME280;33181;49.246;7.372;2022-08-19T11:31:43;98573.63;;;31.10;37.17
47430;BME280;33181;49.246;7.372;2022-08-19T11:34:14;98566.91;;;31.23;37.12
47430;BME280;33181;49.246;7.372;2022-08-19T11:36:42;98577.66;;;31.40;37.78
47430;BME280;33181;49.246;7.372;2022-08-19T11:39:12;98578.75;;;31.44;36.57
47430;BME280;33181;49.246;7.372;2022-08-19T11:41:39;98571.66;;;31.38;36.19
47430;BME280;33181;49.246;7.372;2022-08-19T11:44:05;98576.91;;;31.65;35.26
47430;BME280;33181;49.246;7.372;2022-08-19T11:46:33;98561.56;;;31.96;34.92
47430;BME280;33181;49.246;7.372;2022-08-19T11:49:00;98564.03;;;32.08;35.23
47430;BME280;33181;49.246;7.372;2022-08-19T11:51:28;98559.69;;;32.07;35.54
47430;BME280;33181;49.246;7.372;2022-08-19T11:53:57;98568.94;;;32.11;35.29
47430;BME280;33181;49.246;7.372;2022-08-19T11:56:23;98576.91;;;31.65;35.27
47430;BME280;33181;49.246;7.372;2022-08-19T11:58:50;98578.06;;;31.27;36.40
47430;BME280;33181;49.246;7.372;2022-08-19T12:01:19;98581.88;;;30.83;36.59
47430;BME280;33181;49.246;7.372;2022-08-19T12:03:48;98578.38;;;30.61;37.13
47430;BME280;33181;49.246;7.372;2022-08-19T12:06:18;98569.28;;;30.45;36.77
47430;BME280;33181;49.246;7.372;2022-08-19T12:08:45;98569.84;;;30.74;36.87
47430;BME280;33181;49.246;7.372;2022-08-19T12:11:12;98562.53;;;31.12;36.32
47430;BME280;33181;49.246;7.372;2022-08-19T12:13:40;98576.06;;;31.54;36.45
47430;BME280;33181;49.246;7.372;2022-08-19T12:16:09;98568.66;;;31.34;35.97
47430;BME280;33181;49.246;7.372;2022-08-19T12:18:39;98581.72;;;30.73;36.39
47430;BME280;33181;49.246;7.372;2022-08-19T12:21:06;98570.44;;;30.49;36.90
47430;BME280;33181;49.246;7.372;2022-08-19T12:23:32;98566.19;;;30.31;36.79
47430;BME280;33181;49.246;7.372;2022-08-19T12:25:58;98567.66;;;29.90;37.08
47430;BME280;33181;49.246;7.372;2022-08-19T12:28:25;98565.84;;;29.73;37.28
47430;BME280;33181;49.246;7.372;2022-08-19T12:30:51;98556.44;;;29.81;37.16
47430;BME280;33181;49.246;7.372;2022-08-19T12:33:19;98542.41;;;30.11;35.53
47430;BME280;33181;49.246;7.372;2022-08-19T12:35:49;98544.44;;;30.21;35.16
47430;BME280;33181;49.246;7.372;2022-08-19T12:38:15;98543.22;;;30.39;34.33
47430;BME280;33181;49.246;7.372;2022-08-19T12:40:44;98546.56;;;30.78;32.87
47430;BME280;33181;49.246;7.372;2022-08-19T12:43:10;98538.16;;;31.22;32.16
47430;BME280;33181;49.246;7.372;2022-08-19T12:45:37;98537.22;;;31.59;31.95
47430;BME280;33181;49.246;7.372;2022-08-19T12:48:04;98517.94;;;31.50;32.12
47430;BME280;33181;49.246;7.372;2022-08-19T12:50:30;98533.97;;;31.62;33.00
47430;BME280;33181;49.246;7.372;2022-08-19T12:52:57;98520.75;;;31.86;32.42
47430;BME280;33181;49.246;7.372;2022-08-19T12:55:23;98527.91;;;32.13;32.42
47430;BME280;33181;49.246;7.372;2022-08-19T12:57:50;98530.59;;;32.02;32.67
47430;BME280;33181;49.246;7.372;2022-08-19T13:00:18;98529.56;;;32.29;32.13
47430;BME280;33181;49.246;7.372;2022-08-19T13:02:49;98534.16;;;32.34;32.16
47430;BME280;33181;49.246;7.372;2022-08-19T13:05:21;98529.53;;;32.19;32.17
47430;BME280;33181;49.246;7.372;2022-08-19T13:07:49;98535.22;;;32.12;32.56
47430;BME280;33181;49.246;7.372;2022-08-19T13:10:20;98536.06;;;32.23;32.01
47430;BME280;33181;49.246;7.372;2022-08-19T13:12:48;98542.91;;;32.46;32.22
47430;BME280;33181;49.246;7.372;2022-08-19T13:15:16;98531.97;;;32.10;32.80
47430;BME280;33181;49.246;7.372;2022-08-19T13:17:51;98527.25;;;31.80;33.67
47430;BME280;33181;49.246;7.372;2022-08-19T13:20:19;98529.13;;;31.74;34.11
47430;BME280;33181;49.246;7.372;2022-08-19T13:22:46;98532.97;;;31.78;34.46
47430;BME280;33181;49.246;7.372;2022-08-19T13:25:13;98538.66;;;31.77;36.03
47430;BME280;33181;49.246;7.372;2022-08-19T13:27:39;98546.06;;;31.92;36.04
47430;BME280;33181;49.246;7.372;2022-08-19T13:30:09;98536.56;;;31.94;36.34